sensor_id;sensor_type;location;lat;lon;timestamp;P1;durP1;ratioP1;P2;durP2;ratioP2
79348;SDS011;68817;48.110;11.660;2024-01-10T00:00:36;26.60;;;13.00;;
79348;SDS011;68817;48.110;11.660;2024-01-10T00:03:02;28.05;;;13.60;;
79348;SDS011;68817;48.110;11.660;2024-01-10T00:05:28;22.73;;;10.43;;
79348;SDS011;68817;48.110;11.660;2024-01-10T00:07:53;27.15;;;12.50;;
79348;SDS011;68817;48.110;11.660;2024-01-10T00:10:19;20.15;;;10.32;;
79348;SDS011;68817;48.110;11.660;2024-01-10T00:12:46;17.95;;;10.50;;
79348;SDS011;68817;48.110;11.660;2024-01-10T00:15:12;24.33;;;11.40;;
79348;SDS011;68817;48.110;11.660;2024-01-10T00:17:37;18.80;;;10.68;;
79348;SDS011;68817;48.110;11.660;2024-01-10T00:20:05;29.13;;;13.00;;
79348;SDS011;68817;48.110;11.660;2024-01-10T00:22:31;29.00;;;15.02;;
79348;SDS011;68817;48.110;11.660;2024-01-10T00:24:57;39.88;;;15.27;;
79348;SDS011;68817;48.110;11.660;2024-01-10T00:27:22;31.40;;;13.82;;
79348;SDS011;68817;48.110;11.660;2024-01-10T00:29:47;35.17;;;14.60;;
79348;SDS011;68817;48.110;11.660;2024-01-10T00:32:13;27.98;;;13.57;;
79348;SDS011;68817;48.110;11.660;2024-01-10T00:34:38;32.80;;;13.48;;
79348;SDS011;68817;48.110;11.660;2024-01-10T00:37:04;25.08;;;13.07;;
79348;SDS011;68817;48.110;11.660;2024-01-10T00:39:29;28.98;;;13.85;;
79348;SDS011;68817;48.110;11.660;2024-01-10T00:41:55;25.63;;;11.90;;
79348;SDS011;68817;48.110;11.660;2024-01-10T00:44:20;28.00;;;13.27;;
79348;SDS011;68817;48.110;11.660;2024-01-10T00:46:46;27.17;;;13.75;;
79348;SDS011;68817;48.110;11.660;2024-01-10T00:49:11;35.53;;;14.85;;
79348;SDS011;68817;48.110;11.660;2024-01-10T00:51:37;30.30;;;12.50;;
79348;SDS011;68817;48.110;11.660;2024-01-10T00:54:02;30.13;;;13.48;;
79348;SDS011;68817;48.110;11.660;2024-01-10T00:56:27;30.30;;;14.18;;
79348;SDS011;68817;48.110;11.660;2024-01-10T00:58:53;29.17;;;11.63;;
79348;SDS011;68817;48.110;11.660;2024-01-10T01:01:23;28.00;;;13.85;;
79348;SDS011;68817;48.110;11.660;2024-01-10T01:03:48;25.67;;;12.20;;
79348;SDS011;68817;48.110;11.660;2024-01-10T01:06:14;18.42;;;10.88;;
79348;SDS011;68817;48.110;11.660;2024-01-10T01:08:39;26.05;;;11.02;;
79348;SDS011;68817;48.110;11.660;2024-01-10T01:11:05;24.27;;;11.18;;
79348;SDS011;68817;48.110;11.660;2024-01-10T01:13:31;25.27;;;11.77;;
79348;SDS011;68817;48.110;11.660;2024-01-10T01:15:56;25.38;;;10.80;;
79348;SDS011;68817;48.110;11.660;2024-01-10T01:18:22;26.25;;;11.98;;
79348;SDS011;68817;48.110;11.660;2024-01-10T01:20:47;23.70;;;11.10;;
79348;SDS011;68817;48.110;11.660;2024-01-10T01:23:15;26.42;;;10.43;;
79348;SDS011;68817;48.110;11.660;2024-01-10T01:25:40;24.70;;;11.63;;
79348;SDS011;68817;48.110;11.660;2024-01-10T01:28:06;24.05;;;11.20;;
79348;SDS011;68817;48.110;11.660;2024-01-10T01:30:31;26.35;;;11.77;;
79348;SDS011;68817;48.110;11.660;2024-01-10T01:32:56;27.40;;;12.07;;
79348;SDS011;68817;48.110;11.660;2024-01-10T01:35:22;25.83;;;11.80;;
79348;SDS011;68817;48.110;11.660;2024-01-10T01:37:48;25.67;;;10.98;;
79348;SDS011;68817;48.110;11.660;2024-01-10T01:40:14;24.98;;;9.43;;
79348;SDS011;68817;48.110;11.660;2024-01-10T01:42:39;27.33;;;9.63;;
79348;SDS011;68817;48.110;11.660;2024-01-10T01:45:05;27.08;;;10.50;;
79348;SDS011;68817;48.110;11.660;2024-01-10T01:47:30;23.92;;;10.95;;
79348;SDS011;68817;48.110;11.660;2024-01-10T01:49:56;27.67;;;9.77;;
79348;SDS011;68817;48.110;11.660;2024-01-10T01:52:21;27.23;;;11.70;;
79348;SDS011;68817;48.110;11.660;2024-01-10T01:54:47;23.90;;;10.00;;
79348;SDS011;68817;48.110;11.660;2024-01-10T01:57:13;23.38;;;10.98;;
79348;SDS011;68817;48.110;11.660;2024-01-10T01:59:38;23.90;;;11.32;;
79348;SDS011;68817;48.110;11.660;2024-01-10T02:02:04;24.55;;;11.55;;
79348;SDS011;68817;48.110;11.660;2024-01-10T02:04:30;23.55;;;11.25;;
79348;SDS011;68817;48.110;11.660;2024-01-10T02:06:55;24.30;;;11.63;;
79348;SDS011;68817;48.110;11.660;2024-01-10T02:09:21;24.92;;;9.68;;
79348;SDS011;68817;48.110;11.660;2024-01-10T02:11:46;25.80;;;10.25;;
79348;SDS011;68817;48.110;11.660;2024-01-10T02:14:12;21.65;;;9.52;;
79348;SDS011;68817;48.110;11.660;2024-01-10T02:16:38;23.85;;;11.35;;
79348;SDS011;68817;48.110;11.660;2024-01-10T02:19:17;22.48;;;9.93;;
79348;SDS011;68817;48.110;11.660;2024-01-10T02:21:45;26.58;;;11.40;;
79348;SDS011;68817;48.110;11.660;2024-01-10T02:24:11;24.52;;;11.18;;
79348;SDS011;68817;48.110;11.660;2024-01-10T02:26:36;21.48;;;9.93;;
79348;SDS011;68817;48.110;11.660;2024-01-10T02:29:01;22.25;;;9.73;;
79348;SDS011;68817;48.110;11.660;2024-01-10T02:31:27;20.17;;;10.13;;
79348;SDS011;68817;48.110;11.660;2024-01-10T02:33:52;25.27;;;10.18;;
79348;SDS011;68817;48.110;11.660;2024-01-10T02:36:18;24.63;;;10.82;;
79348;SDS011;68817;48.110;11.660;2024-01-10T02:38:43;25.23;;;11.27;;
79348;SDS011;68817;48.110;11.660;2024-01-10T02:41:08;24.65;;;10.40;;
79348;SDS011;68817;48.110;11.660;2024-01-10T02:43:34;24.23;;;10.18;;
79348;SDS011;68817;48.110;11.660;2024-01-10T02:45:59;25.17;;;11.27;;
79348;SDS011;68817;48.110;11.660;2024-01-10T02:48:25;25.23;;;10.98;;
79348;SDS011;68817;48.110;11.660;2024-01-10T02:50:50;35.15;;;11.55;;
79348;SDS011;68817;48.110;11.660;2024-01-10T02:53:15;23.67;;;10.98;;
79348;SDS011;68817;48.110;11.660;2024-01-10T02:55:42;28.60;;;11.88;;
79348;SDS011;68817;48.110;11.660;2024-01-10T02:58:08;25.67;;;10.45;;
79348;SDS011;68817;48.110;11.660;2024-01-10T03:00:33;25.88;;;11.30;;
79348;SDS011;68817;48.110;11.660;2024-01-10T03:02:59;27.25;;;12.00;;
79348;SDS011;68817;48.110;11.660;2024-01-10T03:05:24;25.38;;;9.82;;
79348;SDS011;68817;48.110;11.660;2024-01-10T03:07:49;24.98;;;11.32;;
79348;SDS011;68817;48.110;11.660;2024-01-10T03:10:15;25.40;;;10.35;;
79348;SDS011;68817;48.110;11.660;2024-01-10T03:12:40;24.05;;;10.88;;
79348;SDS011;68817;48.110;11.660;2024-01-10T03:15:06;27.58;;;11.57;;
79348;SDS011;68817;48.110;11.660;2024-01-10T03:17:31;31.42;;;10.35;;
79348;SDS011;68817;48.110;11.660;2024-01-10T03:19:59;29.67;;;11.45;;
79348;SDS011;68817;48.110;11.660;2024-01-10T03:22:24;27.60;;;11.10;;
79348;SDS011;68817;48.110;11.660;2024-01-10T03:24:49;26.85;;;11.10;;
79348;SDS011;68817;48.110;11.660;2024-01-10T03:27:15;27.42;;;10.52;;
79348;SDS011;68817;48.110;11.660;2024-01-10T03:29:40;26.77;;;10.90;;
79348;SDS011;68817;48.110;11.660;2024-01-10T03:32:06;24.58;;;10.75;;
79348;SDS011;68817;48.110;11.660;2024-01-10T03:34:31;25.67;;;10.43;;
79348;SDS011;68817;48.110;11.660;2024-01-10T03:36:57;23.45;;;10.35;;
79348;SDS011;68817;48.110;11.660;2024-01-10T03:39:22;25.13;;;10.23;;
79348;SDS011;68817;48.110;11.660;2024-01-10T03:41:47;31.38;;;11.82;;
79348;SDS011;68817;48.110;11.660;2024-01-10T03:44:13;22.08;;;10.65;;
79348;SDS011;68817;48.110;11.660;2024-01-10T03:46:39;24.95;;;10.07;;
79348;SDS011;68817;48.110;11.660;2024-01-10T03:49:04;28.90;;;11.70;;
79348;SDS011;68817;48.110;11.660;2024-01-10T03:51:30;24.80;;;11.05;;
79348;SDS011;68817;48.110;11.660;2024-01-10T03:53:55;25.80;;;10.40;;
79348;SDS011;68817;48.110;11.660;2024-01-10T03:56:21;25.83;;;11.27;;
79348;SDS011;68817;48.110;11.660;2024-01-10T03:58:46;25.23;;;11.23;;
79348;SDS011;68817;48.110;11.660;2024-01-10T04:01:13;23.73;;;10.23;;
79348;SDS011;68817;48.110;11.660;2024-01-10T04:03:39;26.48;;;10.10;;
79348;SDS011;68817;48.110;11.660;2024-01-10T04:06:07;25.90;;;11.70;;
79348;SDS011;68817;48.110;11.660;2024-01-10T04:08:32;28.67;;;12.80;;
79348;SDS011;68817;48.110;11.660;2024-01-10T04:10:58;29.17;;;10.43;;
79348;SDS011;68817;48.110;11.660;2024-01-10T04:13:24;28.08;;;11.98;;
79348;SDS011;68817;48.110;11.660;2024-01-10T04:15:49;27.83;;;13.05;;
79348;SDS011;68817;48.110;11.660;2024-01-10T04:18:14;28.65;;;11.00;;
79348;SDS011;68817;48.110;11.660;2024-01-10T04:20:40;27.48;;;11.48;;
79348;SDS011;68817;48.110;11.660;2024-01-10T04:23:05;24.80;;;11.23;;
79348;SDS011;68817;48.110;11.660;2024-01-10T04:25:31;24.65;;;10.20;;
79348;SDS011;68817;48.110;11.660;2024-01-10T04:27:56;25.73;;;10.80;;
79348;SDS011;68817;48.110;11.660;2024-01-10T04:30:22;24.77;;;10.52;;
79348;SDS011;68817;48.110;11.660;2024-01-10T04:32:48;20.13;;;8.30;;
79348;SDS011;68817;48.110;11.660;2024-01-10T04:35:13;25.92;;;10.55;;
79348;SDS011;68817;48.110;11.660;2024-01-10T04:37:39;20.50;;;9.65;;
79348;SDS011;68817;48.110;11.660;2024-01-10T04:40:05;28.85;;;11.10;;
79348;SDS011;68817;48.110;11.660;2024-01-10T04:42:31;22.98;;;10.40;;
79348;SDS011;68817;48.110;11.660;2024-01-10T04:44:56;25.48;;;10.02;;
79348;SDS011;68817;48.110;11.660;2024-01-10T04:47:22;24.33;;;10.07;;
79348;SDS011;68817;48.110;11.660;2024-01-10T04:49:47;27.58;;;11.88;;
79348;SDS011;68817;48.110;11.660;2024-01-10T04:52:13;26.50;;;9.32;;
79348;SDS011;68817;48.110;11.660;2024-01-10T04:54:38;24.30;;;10.02;;
79348;SDS011;68817;48.110;11.660;2024-01-10T04:57:04;30.20;;;11.95;;
79348;SDS011;68817;48.110;11.660;2024-01-10T04:59:29;28.70;;;10.43;;
79348;SDS011;68817;48.110;11.660;2024-01-10T05:01:55;28.00;;;10.48;;
79348;SDS011;68817;48.110;11.660;2024-01-10T05:04:20;31.30;;;11.80;;
79348;SDS011;68817;48.110;11.660;2024-01-10T05:06:46;22.85;;;9.00;;
79348;SDS011;68817;48.110;11.660;2024-01-10T05:09:12;30.52;;;11.75;;
79348;SDS011;68817;48.110;11.660;2024-01-10T05:11:39;28.83;;;11.80;;
79348;SDS011;68817;48.110;11.660;2024-01-10T05:14:04;23.48;;;9.93;;
79348;SDS011;68817;48.110;11.660;2024-01-10T05:16:30;27.52;;;11.13;;
79348;SDS011;68817;48.110;11.660;2024-01-10T05:18:56;23.80;;;9.20;;
79348;SDS011;68817;48.110;11.660;2024-01-10T05:21:22;28.67;;;11.60;;
79348;SDS011;68817;48.110;11.660;2024-01-10T05:23:47;31.17;;;11.45;;
79348;SDS011;68817;48.110;11.660;2024-01-10T05:26:14;25.10;;;11.20;;
79348;SDS011;68817;48.110;11.660;2024-01-10T05:28:39;29.77;;;11.80;;
79348;SDS011;68817;48.110;11.660;2024-01-10T05:31:04;27.00;;;10.35;;
79348;SDS011;68817;48.110;11.660;2024-01-10T05:33:30;29.85;;;12.73;;
79348;SDS011;68817;48.110;11.660;2024-01-10T05:35:56;27.10;;;11.43;;
79348;SDS011;68817;48.110;11.660;2024-01-10T05:38:21;27.20;;;11.85;;
79348;SDS011;68817;48.110;11.660;2024-01-10T05:40:46;27.92;;;11.15;;
79348;SDS011;68817;48.110;11.660;2024-01-10T05:43:12;29.15;;;11.13;;
79348;SDS011;68817;48.110;11.660;2024-01-10T05:45:37;25.23;;;9.95;;
79348;SDS011;68817;48.110;11.660;2024-01-10T05:48:03;20.13;;;9.23;;
79348;SDS011;68817;48.110;11.660;2024-01-10T05:50:29;27.95;;;9.60;;
79348;SDS011;68817;48.110;11.660;2024-01-10T05:52:55;28.33;;;9.90;;
79348;SDS011;68817;48.110;11.660;2024-01-10T05:55:20;23.60;;;10.43;;
79348;SDS011;68817;48.110;11.660;2024-01-10T05:57:46;27.63;;;9.63;;
79348;SDS011;68817;48.110;11.660;2024-01-10T06:00:11;22.50;;;8.63;;
79348;SDS011;68817;48.110;11.660;2024-01-10T06:02:41;28.48;;;11.77;;
79348;SDS011;68817;48.110;11.660;2024-01-10T06:05:06;30.55;;;11.48;;
79348;SDS011;68817;48.110;11.660;2024-01-10T06:07:36;27.20;;;11.63;;
79348;SDS011;68817;48.110;11.660;2024-01-10T06:10:02;25.88;;;10.85;;
79348;SDS011;68817;48.110;11.660;2024-01-10T06:12:28;31.80;;;11.65;;
79348;SDS011;68817;48.110;11.660;2024-01-10T06:14:53;23.88;;;10.23;;
79348;SDS011;68817;48.110;11.660;2024-01-10T06:17:19;26.33;;;12.40;;
79348;SDS011;68817;48.110;11.660;2024-01-10T06:19:45;28.13;;;11.18;;
79348;SDS011;68817;48.110;11.660;2024-01-10T06:22:10;29.33;;;11.00;;
79348;SDS011;68817;48.110;11.660;2024-01-10T06:24:38;27.17;;;11.65;;
79348;SDS011;68817;48.110;11.660;2024-01-10T06:27:04;29.15;;;11.70;;
79348;SDS011;68817;48.110;11.660;2024-01-10T06:29:31;20.58;;;9.68;;
79348;SDS011;68817;48.110;11.660;2024-01-10T06:31:56;30.83;;;11.48;;
79348;SDS011;68817;48.110;11.660;2024-01-10T06:34:23;28.15;;;11.75;;
79348;SDS011;68817;48.110;11.660;2024-01-10T06:36:48;30.40;;;11.95;;
79348;SDS011;68817;48.110;11.660;2024-01-10T06:39:14;27.00;;;11.90;;
79348;SDS011;68817;48.110;11.660;2024-01-10T06:41:40;28.15;;;11.57;;
79348;SDS011;68817;48.110;11.660;2024-01-10T06:44:07;31.17;;;11.73;;
79348;SDS011;68817;48.110;11.660;2024-01-10T06:46:33;34.00;;;12.65;;
79348;SDS011;68817;48.110;11.660;2024-01-10T06:48:58;23.38;;;9.82;;
79348;SDS011;68817;48.110;11.660;2024-01-10T06:51:24;27.65;;;11.55;;
79348;SDS011;68817;48.110;11.660;2024-01-10T06:53:50;34.80;;;11.40;;
79348;SDS011;68817;48.110;11.660;2024-01-10T06:56:15;26.63;;;9.63;;
79348;SDS011;68817;48.110;11.660;2024-01-10T06:58:40;28.63;;;11.43;;
79348;SDS011;68817;48.110;11.660;2024-01-10T07:01:12;27.88;;;11.35;;
79348;SDS011;68817;48.110;11.660;2024-01-10T07:03:39;29.67;;;11.85;;
79348;SDS011;68817;48.110;11.660;2024-01-10T07:06:05;29.30;;;11.82;;
79348;SDS011;68817;48.110;11.660;2024-01-10T07:08:30;29.00;;;11.35;;
79348;SDS011;68817;48.110;11.660;2024-01-10T07:10:56;28.38;;;11.73;;
79348;SDS011;68817;48.110;11.660;2024-01-10T07:13:22;25.13;;;10.80;;
79348;SDS011;68817;48.110;11.660;2024-01-10T07:15:48;29.02;;;11.65;;
79348;SDS011;68817;48.110;11.660;2024-01-10T07:18:16;27.70;;;12.27;;
79348;SDS011;68817;48.110;11.660;2024-01-10T07:20:41;30.00;;;13.18;;
79348;SDS011;68817;48.110;11.660;2024-01-10T07:23:06;23.13;;;11.00;;
79348;SDS011;68817;48.110;11.660;2024-01-10T07:25:32;34.53;;;11.73;;
79348;SDS011;68817;48.110;11.660;2024-01-10T07:27:59;26.77;;;11.88;;
79348;SDS011;68817;48.110;11.660;2024-01-10T07:30:24;29.00;;;12.38;;
79348;SDS011;68817;48.110;11.660;2024-01-10T07:32:50;27.10;;;10.95;;
79348;SDS011;68817;48.110;11.660;2024-01-10T07:35:15;25.33;;;11.88;;
79348;SDS011;68817;48.110;11.660;2024-01-10T07:37:41;30.23;;;13.00;;
79348;SDS011;68817;48.110;11.660;2024-01-10T07:40:07;28.20;;;12.55;;
79348;SDS011;68817;48.110;11.660;2024-01-10T07:42:36;29.38;;;12.57;;
79348;SDS011;68817;48.110;11.660;2024-01-10T07:45:02;31.77;;;12.57;;
79348;SDS011;68817;48.110;11.660;2024-01-10T07:47:32;28.48;;;11.02;;
79348;SDS011;68817;48.110;11.660;2024-01-10T07:52:30;26.67;;;12.38;;
79348;SDS011;68817;48.110;11.660;2024-01-10T07:54:55;33.30;;;12.52;;
79348;SDS011;68817;48.110;11.660;2024-01-10T07:57:22;37.78;;;13.10;;
79348;SDS011;68817;48.110;11.660;2024-01-10T07:59:47;31.63;;;12.70;;
79348;SDS011;68817;48.110;11.660;2024-01-10T08:02:13;32.88;;;13.07;;
79348;SDS011;68817;48.110;11.660;2024-01-10T08:04:38;30.95;;;12.13;;
79348;SDS011;68817;48.110;11.660;2024-01-10T08:07:04;33.95;;;11.75;;
79348;SDS011;68817;48.110;11.660;2024-01-10T08:09:29;34.78;;;12.57;;
79348;SDS011;68817;48.110;11.660;2024-01-10T08:11:55;31.95;;;14.73;;
79348;SDS011;68817;48.110;11.660;2024-01-10T08:14:20;34.53;;;13.02;;
79348;SDS011;68817;48.110;11.660;2024-01-10T08:16:46;32.38;;;12.77;;
79348;SDS011;68817;48.110;11.660;2024-01-10T08:19:11;30.60;;;13.07;;
79348;SDS011;68817;48.110;11.660;2024-01-10T08:21:37;28.70;;;10.75;;
79348;SDS011;68817;48.110;11.660;2024-01-10T08:24:06;34.53;;;12.80;;
79348;SDS011;68817;48.110;11.660;2024-01-10T08:26:32;29.77;;;13.13;;
79348;SDS011;68817;48.110;11.660;2024-01-10T08:28:57;36.08;;;12.60;;
79348;SDS011;68817;48.110;11.660;2024-01-10T08:31:23;38.03;;;15.02;;
79348;SDS011;68817;48.110;11.660;2024-01-10T08:33:49;33.63;;;13.10;;
79348;SDS011;68817;48.110;11.660;2024-01-10T08:36:15;38.33;;;12.35;;
79348;SDS011;68817;48.110;11.660;2024-01-10T08:38:44;32.78;;;14.32;;
79348;SDS011;68817;48.110;11.660;2024-01-10T08:41:17;32.38;;;12.27;;
79348;SDS011;68817;48.110;11.660;2024-01-10T08:43:43;30.65;;;12.38;;
79348;SDS011;68817;48.110;11.660;2024-01-10T08:46:09;31.77;;;13.77;;
79348;SDS011;68817;48.110;11.660;2024-01-10T08:48:35;35.92;;;15.38;;
79348;SDS011;68817;48.110;11.660;2024-01-10T08:51:04;33.42;;;12.32;;
79348;SDS011;68817;48.110;11.660;2024-01-10T08:53:30;30.70;;;12.55;;
79348;SDS011;68817;48.110;11.660;2024-01-10T08:55:56;33.80;;;12.35;;
79348;SDS011;68817;48.110;11.660;2024-01-10T08:58:31;32.70;;;13.48;;
79348;SDS011;68817;48.110;11.660;2024-01-10T09:00:57;31.13;;;12.35;;
79348;SDS011;68817;48.110;11.660;2024-01-10T09:03:27;32.65;;;11.80;;
79348;SDS011;68817;48.110;11.660;2024-01-10T09:05:52;32.90;;;13.27;;
79348;SDS011;68817;48.110;11.660;2024-01-10T09:08:18;31.58;;;13.48;;
79348;SDS011;68817;48.110;11.660;2024-01-10T09:10:44;37.95;;;14.52;;
79348;SDS011;68817;48.110;11.660;2024-01-10T09:13:13;35.25;;;13.68;;
79348;SDS011;68817;48.110;11.660;2024-01-10T09:16:10;31.27;;;14.23;;
79348;SDS011;68817;48.110;11.660;2024-01-10T09:18:36;33.58;;;13.73;;
79348;SDS011;68817;48.110;11.660;2024-01-10T09:21:04;32.03;;;13.95;;
79348;SDS011;68817;48.110;11.660;2024-01-10T09:23:30;29.67;;;13.85;;
79348;SDS011;68817;48.110;11.660;2024-01-10T09:25:55;36.42;;;12.52;;
79348;SDS011;68817;48.110;11.660;2024-01-10T09:28:25;31.98;;;12.25;;
79348;SDS011;68817;48.110;11.660;2024-01-10T09:30:51;32.10;;;12.30;;
79348;SDS011;68817;48.110;11.660;2024-01-10T09:37:10;27.40;;;10.93;;
79348;SDS011;68817;48.110;11.660;2024-01-10T09:39:36;35.40;;;14.77;;
79348;SDS011;68817;48.110;11.660;2024-01-10T09:42:02;36.15;;;13.48;;
79348;SDS011;68817;48.110;11.660;2024-01-10T09:44:29;33.30;;;14.05;;
79348;SDS011;68817;48.110;11.660;2024-01-10T09:46:54;33.58;;;13.60;;
79348;SDS011;68817;48.110;11.660;2024-01-10T09:49:26;33.33;;;14.68;;
79348;SDS011;68817;48.110;11.660;2024-01-10T09:51:59;33.25;;;13.52;;
79348;SDS011;68817;48.110;11.660;2024-01-10T09:54:31;28.38;;;13.27;;
79348;SDS011;68817;48.110;11.660;2024-01-10T09:57:01;36.60;;;13.82;;
79348;SDS011;68817;48.110;11.660;2024-01-10T09:59:42;36.08;;;13.48;;
79348;SDS011;68817;48.110;11.660;2024-01-10T10:02:42;35.03;;;14.82;;
79348;SDS011;68817;48.110;11.660;2024-01-10T10:05:15;33.38;;;14.07;;
79348;SDS011;68817;48.110;11.660;2024-01-10T10:07:48;32.92;;;13.15;;
79348;SDS011;68817;48.110;11.660;2024-01-10T10:10:43;31.55;;;14.25;;
79348;SDS011;68817;48.110;11.660;2024-01-10T10:13:10;32.05;;;13.43;;
79348;SDS011;68817;48.110;11.660;2024-01-10T10:15:36;34.90;;;13.15;;
79348;SDS011;68817;48.110;11.660;2024-01-10T10:18:04;26.20;;;12.63;;
79348;SDS011;68817;48.110;11.660;2024-01-10T10:20:36;33.03;;;14.95;;
79348;SDS011;68817;48.110;11.660;2024-01-10T10:26:16;34.67;;;15.88;;
79348;SDS011;68817;48.110;11.660;2024-01-10T10:28:49;36.95;;;14.45;;
79348;SDS011;68817;48.110;11.660;2024-01-10T10:31:18;36.83;;;13.02;;
79348;SDS011;68817;48.110;11.660;2024-01-10T10:33:45;40.35;;;13.45;;
79348;SDS011;68817;48.110;11.660;2024-01-10T10:36:15;36.20;;;15.05;;
79348;SDS011;68817;48.110;11.660;2024-01-10T10:38:41;41.13;;;15.18;;
79348;SDS011;68817;48.110;11.660;2024-01-10T10:41:07;35.35;;;14.57;;
79348;SDS011;68817;48.110;11.660;2024-01-10T10:43:36;36.72;;;13.98;;
79348;SDS011;68817;48.110;11.660;2024-01-10T10:46:05;37.58;;;15.68;;
79348;SDS011;68817;48.110;11.660;2024-01-10T10:48:32;35.20;;;14.77;;
79348;SDS011;68817;48.110;11.660;2024-01-10T10:53:25;32.25;;;14.15;;
79348;SDS011;68817;48.110;11.660;2024-01-10T10:55:51;32.03;;;14.52;;
79348;SDS011;68817;48.110;11.660;2024-01-10T10:58:17;31.00;;;12.43;;
79348;SDS011;68817;48.110;11.660;2024-01-10T11:00:46;29.85;;;13.45;;
79348;SDS011;68817;48.110;11.660;2024-01-10T11:03:13;37.95;;;14.38;;
79348;SDS011;68817;48.110;11.660;2024-01-10T11:05:40;32.95;;;13.55;;
79348;SDS011;68817;48.110;11.660;2024-01-10T11:08:07;38.40;;;14.15;;
79348;SDS011;68817;48.110;11.660;2024-01-10T11:10:41;36.63;;;14.30;;
79348;SDS011;68817;48.110;11.660;2024-01-10T11:13:28;42.00;;;15.68;;
79348;SDS011;68817;48.110;11.660;2024-01-10T11:16:38;36.90;;;15.18;;
79348;SDS011;68817;48.110;11.660;2024-01-10T11:21:48;37.67;;;15.57;;
79348;SDS011;68817;48.110;11.660;2024-01-10T11:24:21;33.05;;;14.73;;
79348;SDS011;68817;48.110;11.660;2024-01-10T11:27:11;37.35;;;16.55;;
79348;SDS011;68817;48.110;11.660;2024-01-10T11:29:37;36.38;;;14.00;;
79348;SDS011;68817;48.110;11.660;2024-01-10T11:32:05;36.90;;;13.27;;
79348;SDS011;68817;48.110;11.660;2024-01-10T11:34:35;37.80;;;14.50;;
79348;SDS011;68817;48.110;11.660;2024-01-10T11:37:11;33.75;;;14.77;;
79348;SDS011;68817;48.110;11.660;2024-01-10T11:39:40;38.38;;;14.25;;
79348;SDS011;68817;48.110;11.660;2024-01-10T11:42:08;37.15;;;13.50;;
79348;SDS011;68817;48.110;11.660;2024-01-10T11:44:47;35.30;;;14.02;;
79348;SDS011;68817;48.110;11.660;2024-01-10T11:49:40;33.30;;;14.20;;
79348;SDS011;68817;48.110;11.660;2024-01-10T11:52:06;31.55;;;12.35;;
79348;SDS011;68817;48.110;11.660;2024-01-10T11:54:34;37.55;;;15.55;;
79348;SDS011;68817;48.110;11.660;2024-01-10T11:57:00;40.33;;;16.17;;
79348;SDS011;68817;48.110;11.660;2024-01-10T11:59:26;43.20;;;17.77;;
79348;SDS011;68817;48.110;11.660;2024-01-10T12:01:52;34.63;;;14.70;;
79348;SDS011;68817;48.110;11.660;2024-01-10T12:04:17;39.83;;;14.45;;
79348;SDS011;68817;48.110;11.660;2024-01-10T12:06:44;38.05;;;15.98;;
79348;SDS011;68817;48.110;11.660;2024-01-10T12:09:10;37.83;;;15.52;;
79348;SDS011;68817;48.110;11.660;2024-01-10T12:11:40;35.03;;;15.05;;
79348;SDS011;68817;48.110;11.660;2024-01-10T12:14:09;38.47;;;15.55;;
79348;SDS011;68817;48.110;11.660;2024-01-10T12:16:35;44.50;;;16.45;;
79348;SDS011;68817;48.110;11.660;2024-01-10T12:19:01;37.17;;;16.60;;
79348;SDS011;68817;48.110;11.660;2024-01-10T12:21:26;39.78;;;17.45;;
79348;SDS011;68817;48.110;11.660;2024-01-10T12:23:52;37.92;;;16.13;;
79348;SDS011;68817;48.110;11.660;2024-01-10T12:26:18;35.83;;;15.98;;
79348;SDS011;68817;48.110;11.660;2024-01-10T12:28:53;40.53;;;15.98;;
79348;SDS011;68817;48.110;11.660;2024-01-10T12:31:22;39.08;;;16.55;;
79348;SDS011;68817;48.110;11.660;2024-01-10T12:33:49;41.53;;;16.45;;
79348;SDS011;68817;48.110;11.660;2024-01-10T12:36:16;40.58;;;17.10;;
79348;SDS011;68817;48.110;11.660;2024-01-10T12:38:42;39.58;;;16.20;;
79348;SDS011;68817;48.110;11.660;2024-01-10T12:41:09;41.20;;;15.25;;
79348;SDS011;68817;48.110;11.660;2024-01-10T12:43:35;37.85;;;15.50;;
79348;SDS011;68817;48.110;11.660;2024-01-10T12:48:30;39.42;;;16.55;;
79348;SDS011;68817;48.110;11.660;2024-01-10T12:50:56;40.65;;;16.55;;
79348;SDS011;68817;48.110;11.660;2024-01-10T12:53:22;42.10;;;14.80;;
79348;SDS011;68817;48.110;11.660;2024-01-10T12:55:47;35.50;;;15.45;;
79348;SDS011;68817;48.110;11.660;2024-01-10T12:58:13;34.83;;;13.93;;
79348;SDS011;68817;48.110;11.660;2024-01-10T13:00:39;39.08;;;16.33;;
79348;SDS011;68817;48.110;11.660;2024-01-10T13:03:05;39.03;;;15.07;;
79348;SDS011;68817;48.110;11.660;2024-01-10T13:05:31;39.08;;;15.63;;
79348;SDS011;68817;48.110;11.660;2024-01-10T13:07:56;36.92;;;15.77;;
79348;SDS011;68817;48.110;11.660;2024-01-10T13:11:08;39.03;;;14.95;;
79348;SDS011;68817;48.110;11.660;2024-01-10T13:13:20;36.97;;;15.48;;
79348;SDS011;68817;48.110;11.660;2024-01-10T13:15:47;43.92;;;14.43;;
79348;SDS011;68817;48.110;11.660;2024-01-10T13:18:13;34.67;;;14.82;;
79348;SDS011;68817;48.110;11.660;2024-01-10T13:20:46;39.78;;;15.98;;
79348;SDS011;68817;48.110;11.660;2024-01-10T13:23:12;34.67;;;15.50;;
79348;SDS011;68817;48.110;11.660;2024-01-10T13:25:43;34.58;;;13.80;;
79348;SDS011;68817;48.110;11.660;2024-01-10T13:28:37;36.90;;;12.70;;
79348;SDS011;68817;48.110;11.660;2024-01-10T13:31:19;39.83;;;14.45;;
79348;SDS011;68817;48.110;11.660;2024-01-10T13:33:48;42.90;;;14.85;;
79348;SDS011;68817;48.110;11.660;2024-01-10T13:43:34;34.83;;;11.77;;
79348;SDS011;68817;48.110;11.660;2024-01-10T13:46:00;39.58;;;13.73;;
79348;SDS011;68817;48.110;11.660;2024-01-10T13:48:29;36.25;;;13.65;;
79348;SDS011;68817;48.110;11.660;2024-01-10T13:51:06;39.67;;;14.35;;
79348;SDS011;68817;48.110;11.660;2024-01-10T13:53:41;34.83;;;15.05;;
79348;SDS011;68817;48.110;11.660;2024-01-10T13:56:30;32.60;;;12.98;;
79348;SDS011;68817;48.110;11.660;2024-01-10T13:58:57;30.90;;;13.07;;
79348;SDS011;68817;48.110;11.660;2024-01-10T14:01:23;37.80;;;13.50;;
79348;SDS011;68817;48.110;11.660;2024-01-10T14:03:58;35.78;;;14.30;;
79348;SDS011;68817;48.110;11.660;2024-01-10T14:06:27;38.28;;;13.63;;
79348;SDS011;68817;48.110;11.660;2024-01-10T14:08:53;38.10;;;15.70;;
79348;SDS011;68817;48.110;11.660;2024-01-10T14:11:25;38.60;;;15.15;;
79348;SDS011;68817;48.110;11.660;2024-01-10T14:13:55;44.30;;;16.80;;
79348;SDS011;68817;48.110;11.660;2024-01-10T14:16:45;47.42;;;15.20;;
79348;SDS011;68817;48.110;11.660;2024-01-10T14:19:39;38.15;;;13.95;;
79348;SDS011;68817;48.110;11.660;2024-01-10T14:22:22;33.88;;;14.23;;
79348;SDS011;68817;48.110;11.660;2024-01-10T14:25:41;36.47;;;14.63;;
79348;SDS011;68817;48.110;11.660;2024-01-10T14:28:12;33.88;;;14.73;;
79348;SDS011;68817;48.110;11.660;2024-01-10T14:30:46;38.15;;;15.18;;
79348;SDS011;68817;48.110;11.660;2024-01-10T14:33:25;34.28;;;12.63;;
79348;SDS011;68817;48.110;11.660;2024-01-10T14:35:51;37.85;;;15.48;;
79348;SDS011;68817;48.110;11.660;2024-01-10T14:38:27;36.47;;;13.77;;